TRA5226 HEGN-EHAM
Flight info
| Callsign | TRA5226 |
|---|---|
| Flight time | N/A |
| Altitude | 36000 |
| Route | DCT SOLOX V603 GIDID T91 EMOVA L677 CVO L617 MENKU Y661 ANTAR UN133 GIKAS DCT FSK/N0453F380 UL608 DISOR DCT LONTA UL608 DOLEV DCT GUBOK DCT OBUTI DCT EPOLA DCT RENKA DCT RODIS DCT GASKA DCT MASEK L604 BIGGE T281 HMM/N0422F340 T281 NORKU DCT |
| Aircraft | B738/M-SDE2E3FGHIRWXY/LB1 |
Departure
| Time | 2026-05-01 14:36 |
|---|---|
| Airport | Hurghada International Airport (HEGN) |
Arrival
| Time | N/A |
|---|---|
| Airport | Amsterdam Airport Schiphol (EHAM) |
| Time | Latitude | Longitude | Altitude | Speed | Heading |
|---|---|---|---|---|---|
| 2026-05-01 13:51 | 27.18070 | 33.80586 | 57 ft | 0 kts | 65° |
| 2026-05-01 14:25 | 27.18068 | 33.80581 | 50 ft | 3 kts | 66° |
| 2026-05-01 14:25 | 27.18058 | 33.80554 | 57 ft | 4 kts | 70° |
| 2026-05-01 14:25 | 27.18049 | 33.80525 | 49 ft | 4 kts | 76° |
| 2026-05-01 14:26 | 27.18045 | 33.80495 | 57 ft | 4 kts | 89° |
| 2026-05-01 14:26 | 27.18058 | 33.80462 | 57 ft | 1 kts | 166° |
| 2026-05-01 14:26 | 27.18060 | 33.80461 | 57 ft | 0 kts | 166° |
| 2026-05-01 14:29 | 27.18043 | 33.80466 | 57 ft | 5 kts | 166° |
| 2026-05-01 14:29 | 27.17995 | 33.80480 | 51 ft | 8 kts | 166° |
| 2026-05-01 14:30 | 27.17846 | 33.80461 | 57 ft | 9 kts | 249° |
| 2026-05-01 14:30 | 27.17827 | 33.80392 | 52 ft | 9 kts | 254° |
| 2026-05-01 14:30 | 27.17798 | 33.80315 | 54 ft | 13 kts | 224° |
| 2026-05-01 14:31 | 27.17630 | 33.80338 | 49 ft | 12 kts | 165° |
| 2026-05-01 14:31 | 27.17542 | 33.80363 | 50 ft | 14 kts | 165° |
| 2026-05-01 14:31 | 27.17443 | 33.80393 | 47 ft | 15 kts | 165° |
| 2026-05-01 14:31 | 27.17340 | 33.80426 | 51 ft | 15 kts | 163° |
| 2026-05-01 14:32 | 27.17236 | 33.80457 | 50 ft | 16 kts | 167° |
| 2026-05-01 14:32 | 27.17127 | 33.80487 | 49 ft | 16 kts | 165° |
| 2026-05-01 14:32 | 27.17020 | 33.80520 | 50 ft | 15 kts | 165° |
| 2026-05-01 14:32 | 27.16917 | 33.80550 | 50 ft | 16 kts | 165° |
| 2026-05-01 14:33 | 27.16806 | 33.80583 | 47 ft | 17 kts | 165° |
| 2026-05-01 14:33 | 27.16688 | 33.80618 | 45 ft | 17 kts | 166° |
| 2026-05-01 14:33 | 27.16573 | 33.80651 | 46 ft | 17 kts | 166° |
| 2026-05-01 14:33 | 27.16455 | 33.80684 | 46 ft | 18 kts | 165° |
| 2026-05-01 14:34 | 27.16332 | 33.80722 | 41 ft | 19 kts | 165° |
| 2026-05-01 14:34 | 27.16234 | 33.80753 | 42 ft | 12 kts | 164° |
| 2026-05-01 14:34 | 27.16154 | 33.80736 | 39 ft | 13 kts | 241° |
| 2026-05-01 14:34 | 27.16130 | 33.80650 | 40 ft | 9 kts | 258° |
| 2026-05-01 14:35 | 27.16151 | 33.80605 | 41 ft | 7 kts | 341° |
| 2026-05-01 14:35 | 27.16155 | 33.80604 | 43 ft | 0 kts | 341° |
| 2026-05-01 14:35 | 27.16157 | 33.80603 | 43 ft | 4 kts | 341° |
| 2026-05-01 14:35 | 27.16315 | 33.80553 | 42 ft | 48 kts | 346° |
| 2026-05-01 14:36 | 27.16865 | 33.80395 | 46 ft | 115 kts | 345° |
| 2026-05-01 14:36 | 27.17827 | 33.80117 | 162 ft | 160 kts | 346° |
| 2026-05-01 14:36 | 27.18869 | 33.79785 | 1023 ft | 153 kts | 344° |
| 2026-05-01 14:36 | 27.19914 | 33.79401 | 1691 ft | 164 kts | 345° |
| 2026-05-01 14:37 | 27.21017 | 33.79019 | 2322 ft | 170 kts | 345° |
| 2026-05-01 14:37 | 27.22228 | 33.78647 | 2673 ft | 191 kts | 342° |
| 2026-05-01 14:37 | 27.23548 | 33.78223 | 3194 ft | 204 kts | 342° |
| 2026-05-01 14:37 | 27.24967 | 33.77754 | 3703 ft | 222 kts | 342° |
| 2026-05-01 14:38 | 27.26502 | 33.77251 | 4356 ft | 238 kts | 342° |
| 2026-05-01 14:38 | 27.28146 | 33.76718 | 4986 ft | 253 kts | 342° |
| 2026-05-01 14:38 | 27.29882 | 33.76160 | 5718 ft | 262 kts | 343° |
| 2026-05-01 14:38 | 27.31649 | 33.75593 | 6573 ft | 266 kts | 343° |
| 2026-05-01 14:39 | 27.33436 | 33.75020 | 7420 ft | 268 kts | 343° |
| 2026-05-01 14:39 | 27.35274 | 33.74739 | 8230 ft | 272 kts | 354° |
| 2026-05-01 14:39 | 27.37172 | 33.74609 | 9017 ft | 275 kts | 354° |
| 2026-05-01 14:39 | 27.39097 | 33.74491 | 9767 ft | 278 kts | 355° |
| 2026-05-01 14:40 | 27.41037 | 33.74375 | 10503 ft | 281 kts | 354° |
| 2026-05-01 14:40 | 27.43051 | 33.74253 | 10892 ft | 297 kts | 354° |
| 2026-05-01 14:40 | 27.45172 | 33.74120 | 11257 ft | 314 kts | 354° |
| 2026-05-01 14:40 | 27.46642 | 33.74030 | 11496 ft | 324 kts | 354° |
| 2026-05-01 14:41 | 27.48947 | 33.73887 | 11928 ft | 336 kts | 354° |
| 2026-05-01 14:41 | 27.51298 | 33.73738 | 12590 ft | 340 kts | 354° |
| 2026-05-01 14:41 | 27.53674 | 33.73586 | 13254 ft | 344 kts | 353° |
| 2026-05-01 14:41 | 27.56082 | 33.73435 | 13856 ft | 349 kts | 353° |
| 2026-05-01 14:42 | 27.58522 | 33.73280 | 14444 ft | 353 kts | 353° |
| 2026-05-01 14:42 | 27.60988 | 33.73058 | 15033 ft | 357 kts | 350° |
| 2026-05-01 14:42 | 27.63466 | 33.72682 | 15607 ft | 361 kts | 348° |
| 2026-05-01 14:42 | 27.65958 | 33.72228 | 16144 ft | 365 kts | 347° |
| 2026-05-01 14:43 | 27.68484 | 33.71779 | 16688 ft | 370 kts | 348° |
| 2026-05-01 14:43 | 27.71049 | 33.71368 | 17231 ft | 375 kts | 348° |
| 2026-05-01 14:43 | 27.73652 | 33.70978 | 17779 ft | 379 kts | 348° |
| 2026-05-01 14:43 | 27.76285 | 33.70584 | 18297 ft | 383 kts | 348° |
| 2026-05-01 14:44 | 27.78942 | 33.70177 | 18799 ft | 388 kts | 348° |
| 2026-05-01 14:44 | 27.84344 | 33.69332 | 19812 ft | 395 kts | 347° |
| 2026-05-01 14:44 | 27.87080 | 33.68905 | 20280 ft | 399 kts | 347° |
| 2026-05-01 14:45 | 27.89842 | 33.68474 | 20744 ft | 403 kts | 347° |
| 2026-05-01 14:45 | 27.95441 | 33.67606 | 21657 ft | 410 kts | 347° |
| 2026-05-01 14:45 | 27.98277 | 33.67163 | 22107 ft | 413 kts | 347° |
| 2026-05-01 14:46 | 28.01135 | 33.66714 | 22554 ft | 417 kts | 347° |
| 2026-05-01 14:46 | 28.06928 | 33.65806 | 23393 ft | 423 kts | 347° |
| 2026-05-01 14:46 | 28.09854 | 33.65349 | 23774 ft | 426 kts | 347° |
| 2026-05-01 14:47 | 28.12762 | 33.64894 | 24136 ft | 429 kts | 347° |
| 2026-05-01 14:47 | 28.15731 | 33.64429 | 24481 ft | 432 kts | 347° |
| 2026-05-01 14:47 | 28.18720 | 33.63960 | 24847 ft | 434 kts | 347° |
| 2026-05-01 14:48 | 28.24821 | 33.63768 | 25610 ft | 445 kts | 359° |
| 2026-05-01 14:48 | 28.27923 | 33.64024 | 25964 ft | 448 kts | 359° |
| 2026-05-01 14:48 | 28.34171 | 33.64618 | 26639 ft | 452 kts | 360° |
| 2026-05-01 14:49 | 28.40469 | 33.65190 | 27259 ft | 456 kts | 359° |
| 2026-05-01 14:49 | 28.46820 | 33.65720 | 27880 ft | 457 kts | 355° |
| 2026-05-01 14:50 | 28.51952 | 33.64865 | 28378 ft | 444 kts | 335° |
| 2026-05-01 14:50 | 28.57747 | 33.60558 | 29620 ft | 412 kts | 307° |
| 2026-05-01 14:51 | 28.59542 | 33.58123 | 30313 ft | 402 kts | 304° |
| 2026-05-01 14:51 | 28.63006 | 33.53241 | 31355 ft | 392 kts | 304° |
| 2026-05-01 14:52 | 28.66399 | 33.48429 | 32241 ft | 387 kts | 304° |
| 2026-05-01 14:52 | 28.68092 | 33.46047 | 32638 ft | 385 kts | 304° |
| 2026-05-01 14:52 | 28.71447 | 33.41322 | 33415 ft | 381 kts | 304° |
| 2026-05-01 14:53 | 28.73108 | 33.38975 | 33792 ft | 379 kts | 304° |
| 2026-05-01 14:53 | 28.74758 | 33.36637 | 34132 ft | 378 kts | 304° |
| 2026-05-01 14:53 | 28.76400 | 33.34311 | 34468 ft | 376 kts | 304° |
| 2026-05-01 14:53 | 28.78039 | 33.31992 | 34776 ft | 375 kts | 304° |
| 2026-05-01 14:54 | 28.79652 | 33.29709 | 35078 ft | 374 kts | 304° |
| 2026-05-01 14:54 | 28.81280 | 33.27403 | 35385 ft | 373 kts | 304° |
| 2026-05-01 14:54 | 28.82903 | 33.25101 | 35685 ft | 372 kts | 304° |
| 2026-05-01 14:54 | 28.84522 | 33.22805 | 35905 ft | 373 kts | 304° |
| 2026-05-01 14:55 | 28.86158 | 33.20479 | 35904 ft | 379 kts | 304° |
| 2026-05-01 14:55 | 28.89503 | 33.15726 | 35905 ft | 388 kts | 304° |
| 2026-05-01 14:56 | 28.92910 | 33.10884 | 35904 ft | 394 kts | 304° |
| 2026-05-01 14:56 | 28.96364 | 33.05966 | 35904 ft | 400 kts | 304° |
| 2026-05-01 14:57 | 28.99868 | 33.00970 | 35911 ft | 406 kts | 305° |
| 2026-05-01 14:57 | 29.05215 | 32.93338 | 35916 ft | 413 kts | 305° |
| 2026-05-01 14:58 | 29.08824 | 32.88178 | 35918 ft | 417 kts | 305° |
| 2026-05-01 14:58 | 29.12415 | 32.83042 | 35927 ft | 409 kts | 305° |
| 2026-05-01 14:59 | 29.15943 | 32.77984 | 35937 ft | 405 kts | 305° |
| 2026-05-01 14:59 | 29.19422 | 32.72986 | 35936 ft | 404 kts | 305° |
| 2026-05-01 15:00 | 29.24677 | 32.65433 | 35947 ft | 406 kts | 305° |
| 2026-05-01 15:01 | 29.28194 | 32.60369 | 35947 ft | 406 kts | 305° |
| 2026-05-01 15:01 | 29.31692 | 32.55299 | 35954 ft | 405 kts | 304° |
| 2026-05-01 15:02 | 29.35169 | 32.50217 | 35957 ft | 405 kts | 305° |
| 2026-05-01 15:02 | 29.38655 | 32.45137 | 35965 ft | 406 kts | 305° |
| 2026-05-01 15:03 | 29.42141 | 32.40052 | 35968 ft | 405 kts | 305° |
| 2026-05-01 15:03 | 29.45599 | 32.34996 | 35967 ft | 404 kts | 305° |
| 2026-05-01 15:04 | 29.49071 | 32.29915 | 35968 ft | 404 kts | 305° |
| 2026-05-01 15:04 | 29.52540 | 32.24831 | 35973 ft | 405 kts | 305° |
| 2026-05-01 15:05 | 29.56015 | 32.19734 | 35980 ft | 405 kts | 305° |
| 2026-05-01 15:05 | 29.59488 | 32.14632 | 35976 ft | 405 kts | 305° |
| 2026-05-01 15:06 | 29.62959 | 32.09527 | 35977 ft | 405 kts | 305° |
| 2026-05-01 15:06 | 29.66424 | 32.04424 | 35983 ft | 405 kts | 305° |
| 2026-05-01 15:07 | 29.69890 | 31.99314 | 35975 ft | 405 kts | 305° |
| 2026-05-01 15:07 | 29.73352 | 31.94202 | 35982 ft | 404 kts | 305° |
| 2026-05-01 15:08 | 29.76805 | 31.89098 | 35974 ft | 403 kts | 305° |
| 2026-05-01 15:08 | 29.80202 | 31.84012 | 35980 ft | 403 kts | 304° |
| 2026-05-01 15:09 | 29.83509 | 31.78783 | 35978 ft | 403 kts | 303° |
| 2026-05-01 15:09 | 29.86837 | 31.73568 | 35977 ft | 403 kts | 304° |
| 2026-05-01 15:10 | 29.90183 | 31.68375 | 35977 ft | 403 kts | 304° |
| 2026-05-01 15:10 | 29.95179 | 31.60610 | 35973 ft | 403 kts | 304° |
| 2026-05-01 15:11 | 30.00220 | 31.52832 | 35968 ft | 404 kts | 304° |
| 2026-05-01 15:12 | 30.03570 | 31.47632 | 35965 ft | 403 kts | 304° |
| 2026-05-01 15:12 | 30.08593 | 31.39844 | 35968 ft | 402 kts | 305° |
| 2026-05-01 15:14 | 30.18528 | 31.28875 | 35961 ft | 393 kts | 313° |
| 2026-05-01 15:14 | 30.24558 | 31.22388 | 35959 ft | 395 kts | 313° |
| 2026-05-01 15:15 | 30.32561 | 31.13769 | 35967 ft | 393 kts | 313° |
| 2026-05-01 15:16 | 30.40549 | 31.05142 | 35968 ft | 392 kts | 313° |
| 2026-05-01 15:18 | 30.50478 | 30.94393 | 35967 ft | 390 kts | 313° |
| 2026-05-01 15:19 | 30.58413 | 30.85780 | 35971 ft | 390 kts | 313° |
| 2026-05-01 15:19 | 30.64318 | 30.79356 | 35976 ft | 389 kts | 313° |
| 2026-05-01 15:20 | 30.70239 | 30.72904 | 35977 ft | 389 kts | 313° |
| 2026-05-01 15:21 | 30.74185 | 30.68598 | 35976 ft | 389 kts | 313° |
| 2026-05-01 15:21 | 30.78125 | 30.64294 | 35975 ft | 388 kts | 313° |
| 2026-05-01 15:22 | 30.84025 | 30.57839 | 35968 ft | 387 kts | 313° |
| 2026-05-01 15:22 | 30.87953 | 30.53534 | 35968 ft | 388 kts | 313° |
| 2026-05-01 15:23 | 30.91862 | 30.49246 | 35967 ft | 388 kts | 313° |
| 2026-05-01 15:23 | 30.95788 | 30.44934 | 35967 ft | 388 kts | 313° |
| 2026-05-01 15:24 | 30.99080 | 30.41314 | 35965 ft | 388 kts | 313° |
| 2026-05-01 15:24 | 31.03007 | 30.36991 | 35959 ft | 388 kts | 313° |
| 2026-05-01 15:25 | 31.06935 | 30.32662 | 35958 ft | 388 kts | 313° |
| 2026-05-01 15:25 | 31.11181 | 30.28729 | 35969 ft | 394 kts | 322° |
| 2026-05-01 15:26 | 31.15844 | 30.25337 | 35959 ft | 395 kts | 323° |
| 2026-05-01 15:26 | 31.20494 | 30.21988 | 35958 ft | 395 kts | 323° |
| 2026-05-01 15:27 | 31.25169 | 30.18586 | 35958 ft | 396 kts | 322° |
| 2026-05-01 15:28 | 31.32192 | 30.13478 | 35973 ft | 396 kts | 323° |
| 2026-05-01 15:28 | 31.36874 | 30.10070 | 35974 ft | 396 kts | 322° |
| 2026-05-01 15:29 | 31.43887 | 30.04953 | 35974 ft | 396 kts | 322° |
| 2026-05-01 15:30 | 31.53234 | 29.98122 | 35975 ft | 395 kts | 322° |
| 2026-05-01 15:31 | 31.67149 | 29.87920 | 35984 ft | 394 kts | 322° |
| 2026-05-01 15:32 | 31.76494 | 29.81049 | 35987 ft | 397 kts | 322° |
| 2026-05-01 15:34 | 31.90486 | 29.70731 | 35983 ft | 395 kts | 322° |